createdAt,value
2019-03-17T00:03:05.898Z,5.10
2019-03-17T00:08:09.290Z,5.00
2019-03-17T00:13:12.667Z,4.90
2019-03-17T00:18:16.067Z,4.90
2019-03-17T00:23:19.439Z,4.80
2019-03-17T00:28:22.891Z,4.80
2019-03-17T00:33:26.271Z,4.80
2019-03-17T00:38:29.651Z,4.70
2019-03-17T00:43:33.026Z,4.70
2019-03-17T00:48:36.424Z,4.70
2019-03-17T00:53:39.811Z,4.60
2019-03-17T00:58:43.191Z,4.60
2019-03-17T01:03:46.588Z,4.60
2019-03-17T01:08:49.962Z,4.50
2019-03-17T01:13:53.339Z,4.50
2019-03-17T01:18:56.717Z,4.50
2019-03-17T01:24:00.091Z,4.50
2019-03-17T01:29:03.463Z,4.40
2019-03-17T01:34:06.852Z,4.50
2019-03-17T01:39:10.232Z,4.40
2019-03-17T01:44:13.610Z,4.40
2019-03-17T01:49:16.991Z,4.40
2019-03-17T01:54:20.367Z,4.40
2019-03-17T01:59:23.739Z,4.30
2019-03-17T02:04:27.115Z,4.30
2019-03-17T02:09:30.509Z,4.30
2019-03-17T02:14:33.892Z,4.30
2019-03-17T02:19:37.275Z,4.20
2019-03-17T02:24:40.680Z,4.20
2019-03-17T02:29:44.034Z,4.20
2019-03-17T02:34:47.419Z,4.20
2019-03-17T02:39:50.819Z,4.20
2019-03-17T02:44:54.207Z,4.10
2019-03-17T02:49:57.689Z,4.20
2019-03-17T02:55:01.067Z,4.10
2019-03-17T03:00:07.575Z,4.10
2019-03-17T03:05:11.067Z,4.00
2019-03-17T03:10:14.465Z,4.00
2019-03-17T03:15:17.847Z,4.00
2019-03-17T03:20:21.228Z,4.00
2019-03-17T03:25:24.606Z,4.00
2019-03-17T03:30:27.998Z,3.90
2019-03-17T03:35:31.402Z,3.90
2019-03-17T03:40:34.856Z,3.90
2019-03-17T03:45:38.248Z,3.90
2019-03-17T03:50:41.635Z,3.80
2019-03-17T03:55:45.027Z,3.80
2019-03-17T04:00:48.460Z,3.80
2019-03-17T04:05:51.885Z,3.80
2019-03-17T04:10:55.298Z,3.80
2019-03-17T04:15:58.679Z,3.70
2019-03-17T04:21:02.065Z,3.70
2019-03-17T04:26:05.448Z,3.70
2019-03-17T04:31:08.831Z,3.60
2019-03-17T04:36:12.212Z,3.50
2019-03-17T04:41:15.600Z,3.50
2019-03-17T04:46:18.994Z,3.50
2019-03-17T04:51:22.387Z,3.40
2019-03-17T04:56:25.791Z,3.40
2019-03-17T05:01:29.172Z,3.30
2019-03-17T05:06:32.560Z,3.20
2019-03-17T05:11:35.948Z,3.20
2019-03-17T05:16:39.335Z,3.10
2019-03-17T05:21:42.735Z,3.10
2019-03-17T05:26:46.107Z,3.10
2019-03-17T05:31:49.485Z,3.00
2019-03-17T05:37:05.040Z,3.00
2019-03-17T05:41:57.989Z,2.90
2019-03-17T05:47:01.367Z,2.90
2019-03-17T05:52:04.750Z,2.90
2019-03-17T05:57:08.132Z,2.90
2019-03-17T06:02:11.546Z,2.90
2019-03-17T06:07:18.919Z,2.90
2019-03-17T06:12:20.031Z,3.00
2019-03-17T06:17:23.399Z,3.00
2019-03-17T06:22:26.780Z,3.00
2019-03-17T06:27:30.170Z,3.10
2019-03-17T06:32:33.570Z,3.10
2019-03-17T06:37:36.959Z,3.20
2019-03-17T06:42:40.350Z,3.30
2019-03-17T06:47:43.758Z,3.30
2019-03-17T06:52:47.143Z,3.40
2019-03-17T06:57:50.535Z,3.50
2019-03-17T07:02:53.914Z,3.60
2019-03-17T07:07:57.297Z,3.80
2019-03-17T07:13:00.684Z,4.00
2019-03-17T07:18:04.096Z,4.20
2019-03-17T07:23:07.483Z,4.40
2019-03-17T07:28:10.883Z,4.50
2019-03-17T07:33:14.268Z,4.70
2019-03-17T07:38:17.651Z,5.00
2019-03-17T07:43:21.042Z,5.20
2019-03-17T07:48:24.442Z,5.50
2019-03-17T07:53:27.823Z,5.80
2019-03-17T07:58:31.212Z,6.10
2019-03-17T08:03:34.600Z,6.50
2019-03-17T08:08:37.997Z,6.80
2019-03-17T08:13:41.559Z,7.20
2019-03-17T08:18:44.950Z,7.50
2019-03-17T08:23:48.332Z,7.90
2019-03-17T08:28:51.714Z,8.30
2019-03-17T08:33:55.183Z,8.70
2019-03-17T08:38:58.573Z,9.20
2019-03-17T08:44:01.959Z,9.60
2019-03-17T08:49:05.411Z,10.00
2019-03-17T08:54:08.808Z,10.30
2019-03-17T08:59:12.192Z,10.60
2019-03-17T09:04:15.598Z,11.00
2019-03-17T09:09:18.983Z,11.30
2019-03-17T09:14:22.365Z,11.60
2019-03-17T09:19:25.752Z,12.00
2019-03-17T09:24:29.146Z,12.30
2019-03-17T09:29:32.531Z,12.60
2019-03-17T09:34:35.932Z,12.90
2019-03-17T09:39:39.319Z,13.10
2019-03-17T09:44:42.707Z,13.40
2019-03-17T09:49:46.096Z,13.60
2019-03-17T09:54:49.479Z,13.90
2019-03-17T09:59:52.873Z,14.20
2019-03-17T10:04:56.255Z,14.50
2019-03-17T10:09:59.654Z,14.80
2019-03-17T10:15:03.211Z,15.10
2019-03-17T10:20:09.677Z,15.40
2019-03-17T10:25:13.335Z,15.70
2019-03-17T10:30:19.797Z,16.00
2019-03-17T10:35:23.183Z,16.30
2019-03-17T10:40:26.582Z,16.50
2019-03-17T10:45:29.963Z,16.80
2019-03-17T10:50:33.351Z,17.10
2019-03-17T10:55:36.739Z,17.40
2019-03-17T11:00:40.143Z,17.60
2019-03-17T11:05:43.527Z,17.80
2019-03-17T11:10:46.924Z,18.00
2019-03-17T11:15:50.311Z,18.20
2019-03-17T11:20:53.696Z,18.50
2019-03-17T11:25:57.085Z,18.60
2019-03-17T11:31:00.550Z,18.80
2019-03-17T11:36:04.000Z,19.00
2019-03-17T11:41:07.387Z,19.10
2019-03-17T11:46:10.781Z,19.20
2019-03-17T11:51:14.167Z,19.30
2019-03-17T11:56:17.551Z,19.40
2019-03-17T12:01:20.936Z,19.50
2019-03-17T12:06:24.315Z,19.70
2019-03-17T12:11:27.703Z,19.80
2019-03-17T12:16:31.092Z,20.00
2019-03-17T12:21:34.468Z,20.10
2019-03-17T12:26:37.843Z,20.10
2019-03-17T12:31:41.230Z,20.10
2019-03-17T12:36:44.615Z,20.10
2019-03-17T12:41:48.011Z,20.00
2019-03-17T12:46:51.403Z,19.80
2019-03-17T12:51:54.792Z,19.70
2019-03-17T12:56:58.184Z,19.60
2019-03-17T13:02:01.561Z,19.50
2019-03-17T13:07:04.938Z,19.30
2019-03-17T13:12:08.347Z,19.10
2019-03-17T13:17:11.748Z,19.00
2019-03-17T13:22:15.128Z,18.90
2019-03-17T13:27:18.519Z,18.70
2019-03-17T13:32:21.914Z,18.60
2019-03-17T13:37:25.299Z,18.50
2019-03-17T13:42:28.706Z,18.40
2019-03-17T13:47:32.090Z,18.40
2019-03-17T13:52:35.488Z,18.30
2019-03-17T13:57:39.142Z,18.20
2019-03-17T14:02:42.513Z,18.20
2019-03-17T14:07:45.895Z,18.20
2019-03-17T14:12:49.295Z,18.20
2019-03-17T14:17:52.703Z,18.20
2019-03-17T14:22:56.102Z,18.20
2019-03-17T14:27:59.480Z,18.20
2019-03-17T14:33:02.866Z,18.20
2019-03-17T14:38:06.288Z,18.20
2019-03-17T14:43:09.671Z,18.20
2019-03-17T14:48:13.047Z,18.20
2019-03-17T14:53:16.439Z,18.20
2019-03-17T14:58:19.815Z,18.20
2019-03-17T15:03:23.192Z,18.20
2019-03-17T15:08:26.576Z,18.20
2019-03-17T15:13:29.959Z,18.20
2019-03-17T15:18:33.335Z,18.20
2019-03-17T15:23:36.729Z,18.10
2019-03-17T15:28:40.112Z,18.00
2019-03-17T15:33:43.491Z,17.90
2019-03-17T15:38:47.065Z,17.80
2019-03-17T15:43:50.439Z,17.70
2019-03-17T15:48:53.819Z,17.50
2019-03-17T15:53:57.220Z,17.40
2019-03-17T15:59:00.595Z,17.30
2019-03-17T16:04:03.995Z,17.10
2019-03-17T16:09:08.242Z,17.00
2019-03-17T16:14:11.628Z,16.80
2019-03-17T16:19:15.019Z,16.70
2019-03-17T16:24:18.396Z,16.60
2019-03-17T16:29:21.809Z,16.30
2019-03-17T16:34:25.192Z,16.10
2019-03-17T16:39:28.578Z,15.90
2019-03-17T16:44:31.973Z,15.70
2019-03-17T16:49:35.367Z,15.50
2019-03-17T16:54:38.758Z,15.20
2019-03-17T16:59:42.143Z,14.90
2019-03-17T17:04:45.531Z,14.60
2019-03-17T17:09:48.924Z,14.40
2019-03-17T17:14:52.315Z,14.10
2019-03-17T17:19:55.701Z,13.80
2019-03-17T17:24:59.087Z,13.40
2019-03-17T17:30:02.760Z,13.20
2019-03-17T17:35:06.897Z,12.90
2019-03-17T17:40:21.297Z,12.70
2019-03-17T17:45:25.528Z,12.40
2019-03-17T17:50:32.426Z,12.20
2019-03-17T17:55:35.824Z,12.00
2019-03-17T18:00:46.991Z,11.80
2019-03-17T18:05:50.367Z,11.50
2019-03-17T18:10:53.761Z,11.40
2019-03-17T18:15:57.146Z,11.20
2019-03-17T18:21:00.539Z,11.00
2019-03-17T18:26:03.911Z,10.90
2019-03-17T18:31:07.309Z,10.70
2019-03-17T18:36:10.712Z,10.60
2019-03-17T18:41:14.182Z,10.50
2019-03-17T18:46:17.584Z,10.40
2019-03-17T18:51:20.969Z,10.30
2019-03-17T18:56:24.351Z,10.20
2019-03-17T19:01:27.739Z,10.10
2019-03-17T19:06:31.161Z,10.00
2019-03-17T19:11:34.548Z,9.90
2019-03-17T19:16:37.931Z,9.80
2019-03-17T19:21:41.316Z,9.70
2019-03-17T19:26:44.698Z,9.60
2019-03-17T19:31:48.087Z,9.50
2019-03-17T19:36:51.471Z,9.40
2019-03-17T19:41:54.891Z,9.30
2019-03-17T19:46:58.268Z,9.20
2019-03-17T19:52:01.664Z,9.10
2019-03-17T19:57:05.062Z,9.10
2019-03-17T20:02:08.443Z,9.00
2019-03-17T20:07:11.810Z,8.90
2019-03-17T20:12:15.196Z,8.80
2019-03-17T20:17:18.610Z,8.70
2019-03-17T20:22:21.995Z,8.70
2019-03-17T20:27:25.379Z,8.60
2019-03-17T20:32:28.755Z,8.50
2019-03-17T20:37:32.139Z,8.40
2019-03-17T20:42:35.580Z,8.40
2019-03-17T20:47:38.942Z,8.30
2019-03-17T20:52:42.337Z,8.20
2019-03-17T20:57:45.795Z,8.10
2019-03-17T21:02:49.225Z,8.10
2019-03-17T21:07:52.639Z,8.00
2019-03-17T21:12:56.096Z,8.00
2019-03-17T21:17:59.497Z,7.90
2019-03-17T21:23:03.731Z,7.80
2019-03-17T21:28:07.120Z,7.80
2019-03-17T21:33:10.504Z,7.70
2019-03-17T21:38:13.931Z,7.70
2019-03-17T21:43:17.299Z,7.60
2019-03-17T21:48:20.703Z,7.50
2019-03-17T21:53:24.103Z,7.50
2019-03-17T21:58:27.475Z,7.40
2019-03-17T22:03:30.854Z,7.40
2019-03-17T22:08:34.255Z,7.30
2019-03-17T22:13:37.640Z,7.30
2019-03-17T22:18:41.061Z,7.20
2019-03-17T22:23:44.463Z,7.10
2019-03-17T22:28:47.835Z,7.10
2019-03-17T22:33:51.211Z,7.00
2019-03-17T22:38:54.597Z,7.00
2019-03-17T22:43:57.973Z,6.90
2019-03-17T22:49:01.363Z,6.90
2019-03-17T22:54:04.752Z,6.90
2019-03-17T22:59:08.127Z,6.80
2019-03-17T23:04:11.505Z,6.80
2019-03-17T23:09:14.891Z,6.80
2019-03-17T23:14:18.271Z,6.70
2019-03-17T23:19:21.660Z,6.70
2019-03-17T23:24:25.071Z,6.70
2019-03-17T23:29:28.463Z,6.60
2019-03-17T23:34:31.842Z,6.60
2019-03-17T23:39:35.224Z,6.60
2019-03-17T23:44:48.572Z,6.60
2019-03-17T23:49:43.755Z,6.60
2019-03-17T23:54:47.138Z,6.50
2019-03-17T23:59:50.532Z,6.50
